sensor_id;sensor_type;location;lat;lon;timestamp;P1;durP1;ratioP1;P2;durP2;ratioP2
18793;SDS011;29610;49.022;12.114;2022-09-09T00:00:38;23.03;;;9.60;;
18793;SDS011;29610;49.022;12.114;2022-09-09T00:03:16;19.10;;;8.93;;
18793;SDS011;29610;49.022;12.114;2022-09-09T00:05:53;20.83;;;9.13;;
18793;SDS011;29610;49.022;12.114;2022-09-09T00:08:38;19.17;;;9.43;;
18793;SDS011;29610;49.022;12.114;2022-09-09T00:11:21;24.37;;;11.10;;
18793;SDS011;29610;49.022;12.114;2022-09-09T00:13:57;20.00;;;9.30;;
18793;SDS011;29610;49.022;12.114;2022-09-09T00:16:35;20.87;;;9.63;;
18793;SDS011;29610;49.022;12.114;2022-09-09T00:19:12;21.83;;;10.60;;
18793;SDS011;29610;49.022;12.114;2022-09-09T00:21:53;23.57;;;10.43;;
18793;SDS011;29610;49.022;12.114;2022-09-09T00:24:38;20.80;;;9.87;;
18793;SDS011;29610;49.022;12.114;2022-09-09T00:27:16;20.67;;;10.90;;
18793;SDS011;29610;49.022;12.114;2022-09-09T00:29:56;26.93;;;10.37;;
18793;SDS011;29610;49.022;12.114;2022-09-09T00:32:40;25.47;;;10.50;;
18793;SDS011;29610;49.022;12.114;2022-09-09T00:35:14;24.53;;;11.87;;
18793;SDS011;29610;49.022;12.114;2022-09-09T00:37:53;25.73;;;11.33;;
18793;SDS011;29610;49.022;12.114;2022-09-09T00:40:29;27.60;;;11.77;;
18793;SDS011;29610;49.022;12.114;2022-09-09T00:43:07;26.33;;;13.90;;
18793;SDS011;29610;49.022;12.114;2022-09-09T00:46:09;27.97;;;14.13;;
18793;SDS011;29610;49.022;12.114;2022-09-09T00:48:59;24.77;;;12.93;;
18793;SDS011;29610;49.022;12.114;2022-09-09T00:51:45;28.23;;;12.80;;
18793;SDS011;29610;49.022;12.114;2022-09-09T00:54:30;20.93;;;10.90;;
18793;SDS011;29610;49.022;12.114;2022-09-09T00:57:13;37.30;;;13.00;;
18793;SDS011;29610;49.022;12.114;2022-09-09T01:00:16;27.33;;;11.57;;
18793;SDS011;29610;49.022;12.114;2022-09-09T01:02:52;23.03;;;11.10;;
18793;SDS011;29610;49.022;12.114;2022-09-09T01:05:55;26.43;;;13.37;;
18793;SDS011;29610;49.022;12.114;2022-09-09T01:08:48;22.33;;;11.80;;
18793;SDS011;29610;49.022;12.114;2022-09-09T01:11:44;34.10;;;14.80;;
18793;SDS011;29610;49.022;12.114;2022-09-09T01:14:29;25.83;;;12.93;;
18793;SDS011;29610;49.022;12.114;2022-09-09T01:17:11;27.03;;;12.07;;
18793;SDS011;29610;49.022;12.114;2022-09-09T01:19:55;27.20;;;14.70;;
18793;SDS011;29610;49.022;12.114;2022-09-09T01:22:44;34.13;;;14.70;;
18793;SDS011;29610;49.022;12.114;2022-09-09T01:25:56;32.87;;;17.00;;
18793;SDS011;29610;49.022;12.114;2022-09-09T01:28:48;37.07;;;17.10;;
18793;SDS011;29610;49.022;12.114;2022-09-09T01:31:23;37.87;;;19.67;;
18793;SDS011;29610;49.022;12.114;2022-09-09T01:33:57;29.30;;;15.63;;
18793;SDS011;29610;49.022;12.114;2022-09-09T01:36:29;29.27;;;16.57;;
18793;SDS011;29610;49.022;12.114;2022-09-09T01:39:06;34.77;;;15.23;;
18793;SDS011;29610;49.022;12.114;2022-09-09T01:41:36;29.80;;;14.00;;
18793;SDS011;29610;49.022;12.114;2022-09-09T01:44:09;31.30;;;16.57;;
18793;SDS011;29610;49.022;12.114;2022-09-09T01:46:42;31.93;;;16.03;;
18793;SDS011;29610;49.022;12.114;2022-09-09T01:49:16;37.40;;;18.53;;
18793;SDS011;29610;49.022;12.114;2022-09-09T01:51:46;30.57;;;14.17;;
18793;SDS011;29610;49.022;12.114;2022-09-09T01:54:26;29.10;;;14.27;;
18793;SDS011;29610;49.022;12.114;2022-09-09T01:57:08;27.07;;;14.00;;
18793;SDS011;29610;49.022;12.114;2022-09-09T01:59:52;31.00;;;15.50;;
18793;SDS011;29610;49.022;12.114;2022-09-09T02:02:42;28.63;;;15.33;;
18793;SDS011;29610;49.022;12.114;2022-09-09T02:05:27;32.90;;;15.30;;
18793;SDS011;29610;49.022;12.114;2022-09-09T02:08:10;31.90;;;14.67;;
18793;SDS011;29610;49.022;12.114;2022-09-09T02:10:55;30.53;;;14.80;;
18793;SDS011;29610;49.022;12.114;2022-09-09T02:13:42;33.43;;;15.47;;
18793;SDS011;29610;49.022;12.114;2022-09-09T02:16:17;33.60;;;14.70;;
18793;SDS011;29610;49.022;12.114;2022-09-09T02:18:55;26.20;;;14.33;;
18793;SDS011;29610;49.022;12.114;2022-09-09T02:21:44;27.97;;;13.70;;
18793;SDS011;29610;49.022;12.114;2022-09-09T02:24:14;29.27;;;14.10;;
18793;SDS011;29610;49.022;12.114;2022-09-09T02:26:52;29.03;;;14.07;;
18793;SDS011;29610;49.022;12.114;2022-09-09T02:29:26;37.07;;;15.37;;
18793;SDS011;29610;49.022;12.114;2022-09-09T02:32:01;33.77;;;16.40;;
18793;SDS011;29610;49.022;12.114;2022-09-09T02:34:39;29.70;;;14.53;;
18793;SDS011;29610;49.022;12.114;2022-09-09T02:37:12;31.73;;;15.73;;
18793;SDS011;29610;49.022;12.114;2022-09-09T02:39:50;31.20;;;16.40;;
18793;SDS011;29610;49.022;12.114;2022-09-09T02:42:21;35.20;;;16.37;;
18793;SDS011;29610;49.022;12.114;2022-09-09T02:44:56;29.03;;;15.07;;
18793;SDS011;29610;49.022;12.114;2022-09-09T02:47:25;40.27;;;17.17;;
18793;SDS011;29610;49.022;12.114;2022-09-09T02:50:11;35.37;;;15.87;;
18793;SDS011;29610;49.022;12.114;2022-09-09T02:52:50;34.93;;;16.03;;
18793;SDS011;29610;49.022;12.114;2022-09-09T02:55:35;33.57;;;17.40;;
18793;SDS011;29610;49.022;12.114;2022-09-09T02:58:10;46.20;;;18.27;;
18793;SDS011;29610;49.022;12.114;2022-09-09T03:00:54;34.53;;;16.97;;
18793;SDS011;29610;49.022;12.114;2022-09-09T03:03:26;29.57;;;14.00;;
18793;SDS011;29610;49.022;12.114;2022-09-09T03:05:55;28.43;;;14.73;;
18793;SDS011;29610;49.022;12.114;2022-09-09T03:08:26;35.60;;;18.73;;
18793;SDS011;29610;49.022;12.114;2022-09-09T03:10:57;40.53;;;16.97;;
18793;SDS011;29610;49.022;12.114;2022-09-09T03:13:33;43.20;;;18.20;;
18793;SDS011;29610;49.022;12.114;2022-09-09T03:16:06;31.83;;;15.60;;
18793;SDS011;29610;49.022;12.114;2022-09-09T03:18:40;33.90;;;16.80;;
18793;SDS011;29610;49.022;12.114;2022-09-09T03:21:09;45.57;;;21.33;;
18793;SDS011;29610;49.022;12.114;2022-09-09T03:23:39;43.77;;;19.83;;
18793;SDS011;29610;49.022;12.114;2022-09-09T03:26:08;45.30;;;20.80;;
18793;SDS011;29610;49.022;12.114;2022-09-09T03:28:43;37.10;;;18.10;;
18793;SDS011;29610;49.022;12.114;2022-09-09T03:31:16;41.00;;;19.30;;
18793;SDS011;29610;49.022;12.114;2022-09-09T03:33:45;45.67;;;21.00;;
18793;SDS011;29610;49.022;12.114;2022-09-09T03:36:15;51.93;;;22.33;;
18793;SDS011;29610;49.022;12.114;2022-09-09T03:38:44;41.77;;;22.23;;
18793;SDS011;29610;49.022;12.114;2022-09-09T03:41:12;49.73;;;22.70;;
18793;SDS011;29610;49.022;12.114;2022-09-09T03:43:41;40.93;;;21.77;;
18793;SDS011;29610;49.022;12.114;2022-09-09T03:46:10;45.87;;;21.80;;
18793;SDS011;29610;49.022;12.114;2022-09-09T03:48:40;43.70;;;21.43;;
18793;SDS011;29610;49.022;12.114;2022-09-09T03:51:08;47.50;;;23.53;;
18793;SDS011;29610;49.022;12.114;2022-09-09T03:53:37;45.33;;;21.40;;
18793;SDS011;29610;49.022;12.114;2022-09-09T03:56:06;43.30;;;23.03;;
18793;SDS011;29610;49.022;12.114;2022-09-09T03:58:37;37.30;;;19.90;;
18793;SDS011;29610;49.022;12.114;2022-09-09T04:01:07;51.30;;;24.50;;
18793;SDS011;29610;49.022;12.114;2022-09-09T04:03:42;43.60;;;21.70;;
18793;SDS011;29610;49.022;12.114;2022-09-09T04:06:12;54.67;;;28.00;;
18793;SDS011;29610;49.022;12.114;2022-09-09T04:08:45;53.60;;;28.07;;
18793;SDS011;29610;49.022;12.114;2022-09-09T04:11:15;50.80;;;26.00;;
18793;SDS011;29610;49.022;12.114;2022-09-09T04:13:46;44.00;;;21.57;;
18793;SDS011;29610;49.022;12.114;2022-09-09T04:16:17;47.30;;;23.27;;
18793;SDS011;29610;49.022;12.114;2022-09-09T04:18:48;54.10;;;25.37;;
18793;SDS011;29610;49.022;12.114;2022-09-09T04:21:17;49.30;;;24.97;;
18793;SDS011;29610;49.022;12.114;2022-09-09T04:23:45;48.63;;;24.73;;
18793;SDS011;29610;49.022;12.114;2022-09-09T04:26:14;45.90;;;24.00;;
18793;SDS011;29610;49.022;12.114;2022-09-09T04:28:44;54.63;;;23.57;;
18793;SDS011;29610;49.022;12.114;2022-09-09T04:31:18;55.00;;;29.50;;
18793;SDS011;29610;49.022;12.114;2022-09-09T04:33:54;49.27;;;25.90;;
18793;SDS011;29610;49.022;12.114;2022-09-09T04:36:24;53.47;;;25.33;;
18793;SDS011;29610;49.022;12.114;2022-09-09T04:38:57;45.53;;;23.27;;
18793;SDS011;29610;49.022;12.114;2022-09-09T04:41:25;43.60;;;22.40;;
18793;SDS011;29610;49.022;12.114;2022-09-09T04:43:54;51.80;;;29.07;;
18793;SDS011;29610;49.022;12.114;2022-09-09T04:46:22;39.33;;;19.60;;
18793;SDS011;29610;49.022;12.114;2022-09-09T04:48:51;39.93;;;21.47;;
18793;SDS011;29610;49.022;12.114;2022-09-09T04:51:25;42.90;;;20.50;;
18793;SDS011;29610;49.022;12.114;2022-09-09T04:53:54;37.90;;;18.80;;
18793;SDS011;29610;49.022;12.114;2022-09-09T04:56:23;35.10;;;17.90;;
18793;SDS011;29610;49.022;12.114;2022-09-09T04:58:56;40.13;;;20.13;;
18793;SDS011;29610;49.022;12.114;2022-09-09T05:01:37;36.27;;;19.27;;
18793;SDS011;29610;49.022;12.114;2022-09-09T05:04:07;40.97;;;19.30;;
18793;SDS011;29610;49.022;12.114;2022-09-09T05:06:37;46.73;;;19.43;;
18793;SDS011;29610;49.022;12.114;2022-09-09T05:09:06;36.67;;;17.80;;
18793;SDS011;29610;49.022;12.114;2022-09-09T05:11:35;43.67;;;19.57;;
18793;SDS011;29610;49.022;12.114;2022-09-09T05:14:27;43.77;;;21.20;;
18793;SDS011;29610;49.022;12.114;2022-09-09T05:16:56;44.87;;;19.83;;
18793;SDS011;29610;49.022;12.114;2022-09-09T05:19:24;37.47;;;17.40;;
18793;SDS011;29610;49.022;12.114;2022-09-09T05:21:54;43.53;;;18.77;;
18793;SDS011;29610;49.022;12.114;2022-09-09T05:24:30;50.67;;;18.00;;
18793;SDS011;29610;49.022;12.114;2022-09-09T05:27:00;45.90;;;18.23;;
18793;SDS011;29610;49.022;12.114;2022-09-09T05:29:29;33.53;;;16.47;;
18793;SDS011;29610;49.022;12.114;2022-09-09T05:32:01;30.90;;;14.20;;
18793;SDS011;29610;49.022;12.114;2022-09-09T05:34:31;30.70;;;15.60;;
18793;SDS011;29610;49.022;12.114;2022-09-09T05:37:01;32.17;;;16.23;;
18793;SDS011;29610;49.022;12.114;2022-09-09T05:39:31;30.30;;;15.47;;
18793;SDS011;29610;49.022;12.114;2022-09-09T05:42:00;30.53;;;13.83;;
18793;SDS011;29610;49.022;12.114;2022-09-09T05:44:29;27.63;;;13.27;;
18793;SDS011;29610;49.022;12.114;2022-09-09T05:46:59;28.37;;;14.40;;
18793;SDS011;29610;49.022;12.114;2022-09-09T05:49:28;28.93;;;14.20;;
18793;SDS011;29610;49.022;12.114;2022-09-09T05:51:56;28.40;;;14.27;;
18793;SDS011;29610;49.022;12.114;2022-09-09T05:54:26;31.87;;;16.47;;
18793;SDS011;29610;49.022;12.114;2022-09-09T05:56:55;29.73;;;16.40;;
18793;SDS011;29610;49.022;12.114;2022-09-09T05:59:23;36.77;;;16.20;;
18793;SDS011;29610;49.022;12.114;2022-09-09T06:01:54;34.73;;;17.50;;
18793;SDS011;29610;49.022;12.114;2022-09-09T06:04:28;27.90;;;15.47;;
18793;SDS011;29610;49.022;12.114;2022-09-09T06:07:00;26.80;;;15.03;;
18793;SDS011;29610;49.022;12.114;2022-09-09T06:09:30;29.87;;;12.90;;
18793;SDS011;29610;49.022;12.114;2022-09-09T06:11:59;25.80;;;14.10;;
18793;SDS011;29610;49.022;12.114;2022-09-09T06:14:31;25.17;;;12.20;;
18793;SDS011;29610;49.022;12.114;2022-09-09T06:17:01;24.83;;;11.87;;
18793;SDS011;29610;49.022;12.114;2022-09-09T06:19:30;22.67;;;10.17;;
18793;SDS011;29610;49.022;12.114;2022-09-09T06:21:59;20.03;;;10.20;;
18793;SDS011;29610;49.022;12.114;2022-09-09T06:24:32;22.40;;;9.97;;
18793;SDS011;29610;49.022;12.114;2022-09-09T06:27:02;26.90;;;10.57;;
18793;SDS011;29610;49.022;12.114;2022-09-09T06:29:34;26.10;;;11.63;;
18793;SDS011;29610;49.022;12.114;2022-09-09T06:32:02;21.97;;;12.17;;
18793;SDS011;29610;49.022;12.114;2022-09-09T06:34:31;25.50;;;12.10;;
18793;SDS011;29610;49.022;12.114;2022-09-09T06:37:00;26.97;;;10.93;;
18793;SDS011;29610;49.022;12.114;2022-09-09T06:39:44;33.00;;;13.73;;
18793;SDS011;29610;49.022;12.114;2022-09-09T06:42:13;26.43;;;11.17;;
18793;SDS011;29610;49.022;12.114;2022-09-09T06:44:47;22.40;;;10.60;;
18793;SDS011;29610;49.022;12.114;2022-09-09T06:47:23;23.53;;;9.80;;
18793;SDS011;29610;49.022;12.114;2022-09-09T06:49:52;19.00;;;8.57;;
18793;SDS011;29610;49.022;12.114;2022-09-09T06:52:21;20.30;;;8.63;;
18793;SDS011;29610;49.022;12.114;2022-09-09T06:54:55;18.60;;;7.40;;
18793;SDS011;29610;49.022;12.114;2022-09-09T06:57:25;22.07;;;7.53;;
18793;SDS011;29610;49.022;12.114;2022-09-09T07:00:06;19.10;;;7.97;;
18793;SDS011;29610;49.022;12.114;2022-09-09T07:02:36;18.90;;;8.00;;
18793;SDS011;29610;49.022;12.114;2022-09-09T07:05:06;17.10;;;7.17;;
18793;SDS011;29610;49.022;12.114;2022-09-09T07:07:37;18.97;;;8.13;;
18793;SDS011;29610;49.022;12.114;2022-09-09T07:10:08;17.30;;;6.63;;
18793;SDS011;29610;49.022;12.114;2022-09-09T07:12:39;20.33;;;6.77;;
18793;SDS011;29610;49.022;12.114;2022-09-09T07:15:10;21.83;;;6.30;;
18793;SDS011;29610;49.022;12.114;2022-09-09T07:17:42;15.70;;;5.47;;
18793;SDS011;29610;49.022;12.114;2022-09-09T07:20:11;14.80;;;4.40;;
18793;SDS011;29610;49.022;12.114;2022-09-09T07:22:41;14.40;;;4.50;;
18793;SDS011;29610;49.022;12.114;2022-09-09T07:25:11;14.80;;;4.60;;
18793;SDS011;29610;49.022;12.114;2022-09-09T07:27:41;14.67;;;4.30;;
18793;SDS011;29610;49.022;12.114;2022-09-09T07:30:10;17.93;;;4.60;;
18793;SDS011;29610;49.022;12.114;2022-09-09T07:32:50;15.63;;;4.23;;
18793;SDS011;29610;49.022;12.114;2022-09-09T07:35:19;13.47;;;3.90;;
18793;SDS011;29610;49.022;12.114;2022-09-09T07:37:48;14.93;;;5.23;;
18793;SDS011;29610;49.022;12.114;2022-09-09T07:40:20;16.50;;;4.87;;
18793;SDS011;29610;49.022;12.114;2022-09-09T07:42:49;14.97;;;4.27;;
18793;SDS011;29610;49.022;12.114;2022-09-09T07:45:21;24.13;;;5.70;;
18793;SDS011;29610;49.022;12.114;2022-09-09T07:47:49;15.23;;;4.77;;
18793;SDS011;29610;49.022;12.114;2022-09-09T07:50:20;17.53;;;4.90;;
18793;SDS011;29610;49.022;12.114;2022-09-09T07:52:50;18.57;;;5.43;;
18793;SDS011;29610;49.022;12.114;2022-09-09T07:55:21;13.90;;;4.50;;
18793;SDS011;29610;49.022;12.114;2022-09-09T07:57:53;17.37;;;5.77;;
18793;SDS011;29610;49.022;12.114;2022-09-09T08:00:23;17.63;;;5.40;;
18793;SDS011;29610;49.022;12.114;2022-09-09T08:02:55;20.53;;;5.27;;
18793;SDS011;29610;49.022;12.114;2022-09-09T08:05:24;16.87;;;5.50;;
18793;SDS011;29610;49.022;12.114;2022-09-09T08:07:52;18.67;;;6.53;;
18793;SDS011;29610;49.022;12.114;2022-09-09T08:10:22;18.20;;;7.03;;
18793;SDS011;29610;49.022;12.114;2022-09-09T08:12:53;18.80;;;7.17;;
18793;SDS011;29610;49.022;12.114;2022-09-09T08:15:44;20.67;;;9.00;;
18793;SDS011;29610;49.022;12.114;2022-09-09T08:18:13;18.50;;;7.90;;
18793;SDS011;29610;49.022;12.114;2022-09-09T08:20:43;18.10;;;8.10;;
18793;SDS011;29610;49.022;12.114;2022-09-09T08:23:12;20.40;;;8.37;;
18793;SDS011;29610;49.022;12.114;2022-09-09T08:25:45;23.70;;;8.10;;
18793;SDS011;29610;49.022;12.114;2022-09-09T08:28:15;18.07;;;7.93;;
18793;SDS011;29610;49.022;12.114;2022-09-09T08:30:44;21.43;;;9.50;;
18793;SDS011;29610;49.022;12.114;2022-09-09T08:33:14;21.97;;;8.60;;
18793;SDS011;29610;49.022;12.114;2022-09-09T08:35:49;20.40;;;7.30;;
18793;SDS011;29610;49.022;12.114;2022-09-09T08:38:20;20.30;;;8.10;;
18793;SDS011;29610;49.022;12.114;2022-09-09T08:40:49;21.00;;;9.67;;
18793;SDS011;29610;49.022;12.114;2022-09-09T08:43:30;18.97;;;8.57;;
18793;SDS011;29610;49.022;12.114;2022-09-09T08:46:05;21.40;;;8.83;;
18793;SDS011;29610;49.022;12.114;2022-09-09T08:48:48;20.00;;;8.53;;
18793;SDS011;29610;49.022;12.114;2022-09-09T08:51:27;19.17;;;7.63;;
18793;SDS011;29610;49.022;12.114;2022-09-09T08:53:59;18.40;;;7.80;;
18793;SDS011;29610;49.022;12.114;2022-09-09T08:56:33;17.73;;;7.80;;
18793;SDS011;29610;49.022;12.114;2022-09-09T08:59:03;16.83;;;6.93;;
18793;SDS011;29610;49.022;12.114;2022-09-09T09:01:41;19.63;;;7.60;;
18793;SDS011;29610;49.022;12.114;2022-09-09T09:04:31;19.80;;;8.00;;
18793;SDS011;29610;49.022;12.114;2022-09-09T09:07:18;17.20;;;6.63;;
18793;SDS011;29610;49.022;12.114;2022-09-09T09:10:09;23.93;;;7.27;;
18793;SDS011;29610;49.022;12.114;2022-09-09T09:13:19;16.30;;;5.67;;
18793;SDS011;29610;49.022;12.114;2022-09-09T09:16:00;18.63;;;5.90;;
18793;SDS011;29610;49.022;12.114;2022-09-09T09:18:44;15.00;;;4.47;;
18793;SDS011;29610;49.022;12.114;2022-09-09T09:21:14;15.80;;;4.20;;
18793;SDS011;29610;49.022;12.114;2022-09-09T09:23:56;15.10;;;4.40;;
18793;SDS011;29610;49.022;12.114;2022-09-09T09:26:30;15.67;;;4.30;;
18793;SDS011;29610;49.022;12.114;2022-09-09T09:29:09;15.27;;;4.70;;
18793;SDS011;29610;49.022;12.114;2022-09-09T09:31:42;16.90;;;4.83;;
18793;SDS011;29610;49.022;12.114;2022-09-09T09:34:15;13.80;;;3.87;;
18793;SDS011;29610;49.022;12.114;2022-09-09T09:36:46;14.10;;;4.60;;
18793;SDS011;29610;49.022;12.114;2022-09-09T09:39:26;14.87;;;4.77;;
18793;SDS011;29610;49.022;12.114;2022-09-09T09:42:17;16.30;;;4.30;;
18793;SDS011;29610;49.022;12.114;2022-09-09T09:44:52;15.87;;;4.10;;
18793;SDS011;29610;49.022;12.114;2022-09-09T09:47:22;12.87;;;3.80;;
18793;SDS011;29610;49.022;12.114;2022-09-09T09:50:15;20.27;;;4.07;;
18793;SDS011;29610;49.022;12.114;2022-09-09T09:52:53;25.70;;;5.90;;
18793;SDS011;29610;49.022;12.114;2022-09-09T09:55:25;16.43;;;3.30;;
18793;SDS011;29610;49.022;12.114;2022-09-09T09:58:01;16.43;;;3.03;;
18793;SDS011;29610;49.022;12.114;2022-09-09T10:00:34;15.00;;;3.40;;
18793;SDS011;29610;49.022;12.114;2022-09-09T10:03:13;13.70;;;2.60;;
18793;SDS011;29610;49.022;12.114;2022-09-09T10:05:52;16.00;;;3.90;;
18793;SDS011;29610;49.022;12.114;2022-09-09T10:08:22;13.90;;;3.17;;
18793;SDS011;29610;49.022;12.114;2022-09-09T10:10:55;18.50;;;3.33;;
18793;SDS011;29610;49.022;12.114;2022-09-09T10:13:49;12.93;;;2.77;;
18793;SDS011;29610;49.022;12.114;2022-09-09T10:16:40;15.43;;;2.40;;
18793;SDS011;29610;49.022;12.114;2022-09-09T10:19:29;17.73;;;2.70;;
18793;SDS011;29610;49.022;12.114;2022-09-09T10:22:02;14.73;;;2.90;;
18793;SDS011;29610;49.022;12.114;2022-09-09T10:24:49;12.73;;;2.17;;
18793;SDS011;29610;49.022;12.114;2022-09-09T10:27:53;14.27;;;2.60;;
18793;SDS011;29610;49.022;12.114;2022-09-09T10:30:47;15.87;;;3.17;;
18793;SDS011;29610;49.022;12.114;2022-09-09T10:33:35;13.20;;;2.00;;
18793;SDS011;29610;49.022;12.114;2022-09-09T10:36:18;13.80;;;2.30;;
18793;SDS011;29610;49.022;12.114;2022-09-09T10:38:52;11.87;;;2.00;;
18793;SDS011;29610;49.022;12.114;2022-09-09T10:41:34;14.00;;;2.13;;
18793;SDS011;29610;49.022;12.114;2022-09-09T10:44:24;12.10;;;2.17;;
18793;SDS011;29610;49.022;12.114;2022-09-09T10:50:27;13.50;;;2.50;;
18793;SDS011;29610;49.022;12.114;2022-09-09T10:53:34;15.67;;;2.63;;
18793;SDS011;29610;49.022;12.114;2022-09-09T10:56:09;15.23;;;2.50;;
18793;SDS011;29610;49.022;12.114;2022-09-09T10:58:44;14.00;;;2.53;;
18793;SDS011;29610;49.022;12.114;2022-09-09T11:01:20;16.30;;;2.20;;
18793;SDS011;29610;49.022;12.114;2022-09-09T11:03:55;13.03;;;1.70;;
18793;SDS011;29610;49.022;12.114;2022-09-09T11:06:34;14.50;;;2.10;;
18793;SDS011;29610;49.022;12.114;2022-09-09T11:09:09;12.97;;;1.70;;
18793;SDS011;29610;49.022;12.114;2022-09-09T11:11:46;12.50;;;2.07;;
18793;SDS011;29610;49.022;12.114;2022-09-09T11:14:22;13.13;;;2.10;;
18793;SDS011;29610;49.022;12.114;2022-09-09T11:17:04;11.77;;;2.27;;
18793;SDS011;29610;49.022;12.114;2022-09-09T11:19:41;12.40;;;1.97;;
18793;SDS011;29610;49.022;12.114;2022-09-09T11:22:16;14.20;;;2.17;;
18793;SDS011;29610;49.022;12.114;2022-09-09T11:24:56;12.80;;;2.07;;
18793;SDS011;29610;49.022;12.114;2022-09-09T11:27:35;13.57;;;2.30;;
18793;SDS011;29610;49.022;12.114;2022-09-09T11:30:20;12.60;;;2.27;;
18793;SDS011;29610;49.022;12.114;2022-09-09T11:33:24;15.07;;;1.90;;
18793;SDS011;29610;49.022;12.114;2022-09-09T11:39:59;14.27;;;1.70;;
18793;SDS011;29610;49.022;12.114;2022-09-09T11:43:00;11.47;;;1.87;;
18793;SDS011;29610;49.022;12.114;2022-09-09T11:45:33;12.37;;;1.83;;
18793;SDS011;29610;49.022;12.114;2022-09-09T11:48:21;11.57;;;1.80;;
18793;SDS011;29610;49.022;12.114;2022-09-09T11:50:59;11.33;;;1.87;;
18793;SDS011;29610;49.022;12.114;2022-09-09T11:53:50;11.17;;;1.93;;
18793;SDS011;29610;49.022;12.114;2022-09-09T11:56:24;14.03;;;2.57;;
18793;SDS011;29610;49.022;12.114;2022-09-09T11:58:58;12.73;;;2.80;;
18793;SDS011;29610;49.022;12.114;2022-09-09T12:01:34;13.93;;;2.70;;
18793;SDS011;29610;49.022;12.114;2022-09-09T12:04:12;14.07;;;1.73;;
18793;SDS011;29610;49.022;12.114;2022-09-09T12:06:57;11.57;;;1.70;;
18793;SDS011;29610;49.022;12.114;2022-09-09T12:09:37;11.10;;;1.60;;
18793;SDS011;29610;49.022;12.114;2022-09-09T12:12:21;12.80;;;2.03;;
18793;SDS011;29610;49.022;12.114;2022-09-09T12:14:58;11.80;;;1.90;;
18793;SDS011;29610;49.022;12.114;2022-09-09T12:17:55;16.23;;;2.17;;
18793;SDS011;29610;49.022;12.114;2022-09-09T12:20:34;12.10;;;2.20;;
18793;SDS011;29610;49.022;12.114;2022-09-09T12:25:00;13.00;;;2.03;;
18793;SDS011;29610;49.022;12.114;2022-09-09T12:27:51;16.50;;;1.90;;
18793;SDS011;29610;49.022;12.114;2022-09-09T12:30:35;16.10;;;1.90;;
18793;SDS011;29610;49.022;12.114;2022-09-09T12:33:21;12.37;;;1.80;;
18793;SDS011;29610;49.022;12.114;2022-09-09T12:35:53;11.77;;;1.53;;
18793;SDS011;29610;49.022;12.114;2022-09-09T12:38:32;12.80;;;1.60;;
18793;SDS011;29610;49.022;12.114;2022-09-09T12:41:15;11.27;;;1.80;;
18793;SDS011;29610;49.022;12.114;2022-09-09T12:43:51;15.33;;;1.83;;
18793;SDS011;29610;49.022;12.114;2022-09-09T12:46:33;11.70;;;1.53;;
18793;SDS011;29610;49.022;12.114;2022-09-09T12:49:20;16.20;;;2.30;;
18793;SDS011;29610;49.022;12.114;2022-09-09T12:52:01;17.17;;;2.50;;
18793;SDS011;29610;49.022;12.114;2022-09-09T12:54:34;14.50;;;2.10;;
18793;SDS011;29610;49.022;12.114;2022-09-09T12:57:08;13.20;;;2.17;;
18793;SDS011;29610;49.022;12.114;2022-09-09T12:59:41;14.10;;;2.43;;
18793;SDS011;29610;49.022;12.114;2022-09-09T13:02:19;18.83;;;2.83;;
18793;SDS011;29610;49.022;12.114;2022-09-09T13:04:50;13.47;;;2.40;;
18793;SDS011;29610;49.022;12.114;2022-09-09T13:07:21;14.37;;;2.30;;
18793;SDS011;29610;49.022;12.114;2022-09-09T13:09:51;11.47;;;2.10;;
18793;SDS011;29610;49.022;12.114;2022-09-09T13:12:22;14.90;;;2.13;;
18793;SDS011;29610;49.022;12.114;2022-09-09T13:14:52;13.70;;;2.10;;
18793;SDS011;29610;49.022;12.114;2022-09-09T13:17:24;15.10;;;3.00;;
18793;SDS011;29610;49.022;12.114;2022-09-09T13:19:55;12.57;;;2.37;;
18793;SDS011;29610;49.022;12.114;2022-09-09T13:22:29;17.07;;;3.70;;
18793;SDS011;29610;49.022;12.114;2022-09-09T13:25:03;18.73;;;3.23;;
18793;SDS011;29610;49.022;12.114;2022-09-09T13:27:54;15.30;;;2.73;;
18793;SDS011;29610;49.022;12.114;2022-09-09T13:30:28;14.40;;;2.40;;
18793;SDS011;29610;49.022;12.114;2022-09-09T13:33:00;14.83;;;2.20;;
18793;SDS011;29610;49.022;12.114;2022-09-09T13:35:33;14.37;;;2.20;;
18793;SDS011;29610;49.022;12.114;2022-09-09T13:38:06;18.40;;;3.50;;
18793;SDS011;29610;49.022;12.114;2022-09-09T13:40:37;42.00;;;5.63;;
18793;SDS011;29610;49.022;12.114;2022-09-09T13:43:10;15.93;;;2.20;;
18793;SDS011;29610;49.022;12.114;2022-09-09T13:45:53;12.67;;;2.40;;
18793;SDS011;29610;49.022;12.114;2022-09-09T13:48:24;13.07;;;2.50;;
18793;SDS011;29610;49.022;12.114;2022-09-09T13:50:54;13.77;;;2.33;;
18793;SDS011;29610;49.022;12.114;2022-09-09T13:53:31;13.77;;;1.97;;
18793;SDS011;29610;49.022;12.114;2022-09-09T13:56:00;17.97;;;3.57;;
18793;SDS011;29610;49.022;12.114;2022-09-09T13:58:34;11.70;;;1.93;;
18793;SDS011;29610;49.022;12.114;2022-09-09T14:01:02;12.50;;;1.77;;
18793;SDS011;29610;49.022;12.114;2022-09-09T14:03:32;16.20;;;2.03;;
18793;SDS011;29610;49.022;12.114;2022-09-09T14:06:04;12.27;;;2.30;;
18793;SDS011;29610;49.022;12.114;2022-09-09T14:08:33;11.93;;;1.70;;
18793;SDS011;29610;49.022;12.114;2022-09-09T14:11:03;12.70;;;1.33;;
18793;SDS011;29610;49.022;12.114;2022-09-09T14:13:33;13.40;;;1.30;;
18793;SDS011;29610;49.022;12.114;2022-09-09T14:16:04;11.63;;;1.70;;
18793;SDS011;29610;49.022;12.114;2022-09-09T14:18:32;12.73;;;1.60;;
18793;SDS011;29610;49.022;12.114;2022-09-09T14:21:04;12.37;;;1.70;;
18793;SDS011;29610;49.022;12.114;2022-09-09T14:23:32;15.10;;;1.57;;
18793;SDS011;29610;49.022;12.114;2022-09-09T14:26:04;11.40;;;1.83;;
18793;SDS011;29610;49.022;12.114;2022-09-09T14:28:35;11.97;;;1.70;;
18793;SDS011;29610;49.022;12.114;2022-09-09T14:31:21;12.70;;;1.70;;
18793;SDS011;29610;49.022;12.114;2022-09-09T14:33:49;11.60;;;1.50;;
18793;SDS011;29610;49.022;12.114;2022-09-09T14:36:19;16.20;;;1.67;;
18793;SDS011;29610;49.022;12.114;2022-09-09T14:38:48;10.77;;;1.23;;
18793;SDS011;29610;49.022;12.114;2022-09-09T14:41:17;15.13;;;1.30;;
18793;SDS011;29610;49.022;12.114;2022-09-09T14:43:50;12.53;;;1.30;;
18793;SDS011;29610;49.022;12.114;2022-09-09T14:46:20;11.50;;;1.73;;
18793;SDS011;29610;49.022;12.114;2022-09-09T14:48:48;11.20;;;1.43;;
18793;SDS011;29610;49.022;12.114;2022-09-09T14:51:23;15.13;;;2.00;;
18793;SDS011;29610;49.022;12.114;2022-09-09T14:53:54;11.63;;;1.27;;
18793;SDS011;29610;49.022;12.114;2022-09-09T14:56:25;12.07;;;1.60;;
18793;SDS011;29610;49.022;12.114;2022-09-09T14:58:58;12.13;;;1.30;;
18793;SDS011;29610;49.022;12.114;2022-09-09T15:01:28;12.40;;;1.63;;
18793;SDS011;29610;49.022;12.114;2022-09-09T15:03:59;11.30;;;1.40;;
18793;SDS011;29610;49.022;12.114;2022-09-09T15:06:31;11.47;;;1.30;;
18793;SDS011;29610;49.022;12.114;2022-09-09T15:09:03;12.23;;;1.67;;
18793;SDS011;29610;49.022;12.114;2022-09-09T15:11:34;12.37;;;1.77;;
18793;SDS011;29610;49.022;12.114;2022-09-09T15:14:06;13.23;;;1.77;;